createdAt,value
2022-09-26T00:00:33.078Z,18.53
2022-09-26T00:02:59.816Z,15.97
2022-09-26T00:05:26.744Z,19.20
2022-09-26T00:07:53.576Z,20.90
2022-09-26T00:10:20.362Z,19.73
2022-09-26T00:12:47.235Z,21.07
2022-09-26T00:15:14.240Z,18.27
2022-09-26T00:17:41.002Z,23.53
2022-09-26T00:20:08.045Z,18.70
2022-09-26T00:22:34.860Z,20.47
2022-09-26T00:25:01.704Z,19.40
2022-09-26T00:27:28.598Z,18.10
2022-09-26T00:29:55.497Z,19.17
2022-09-26T00:32:22.285Z,19.40
2022-09-26T00:34:49.665Z,15.60
2022-09-26T00:37:16.898Z,18.63
2022-09-26T00:39:43.932Z,17.10
2022-09-26T00:42:14.319Z,20.70
2022-09-26T00:44:44.058Z,17.47
2022-09-26T00:47:33.940Z,15.70
2022-09-26T00:50:04.213Z,17.77
2022-09-26T00:52:39.936Z,19.77
2022-09-26T00:55:08.553Z,17.70
2022-09-26T00:57:37.807Z,19.73
2022-09-26T01:00:06.855Z,19.17
2022-09-26T01:02:34.429Z,16.67
2022-09-26T01:05:02.140Z,17.73
2022-09-26T01:07:29.313Z,18.63
2022-09-26T01:09:56.702Z,16.53
2022-09-26T01:12:23.980Z,17.20
2022-09-26T01:14:51.868Z,18.53
2022-09-26T01:17:22.491Z,17.00
2022-09-26T01:20:01.551Z,17.73
2022-09-26T01:22:45.348Z,17.33
2022-09-26T01:25:47.908Z,15.23
2022-09-26T01:28:48.571Z,16.67
2022-09-26T01:31:34.797Z,16.10
2022-09-26T01:34:01.691Z,17.80
2022-09-26T01:36:28.879Z,22.27
2022-09-26T01:39:14.582Z,16.17
2022-09-26T01:41:48.595Z,15.93
2022-09-26T01:44:24.810Z,23.83
2022-09-26T01:46:55.721Z,16.67
2022-09-26T01:49:31.786Z,17.93
2022-09-26T01:52:02.486Z,19.53
2022-09-26T01:54:35.171Z,21.87
2022-09-26T01:57:04.903Z,20.37
2022-09-26T01:59:34.024Z,18.77
2022-09-26T02:02:06.903Z,17.07
2022-09-26T02:04:37.083Z,15.53
2022-09-26T02:07:23.548Z,19.07
2022-09-26T02:09:53.982Z,16.30
2022-09-26T02:12:26.143Z,17.20
2022-09-26T02:14:54.546Z,14.23
2022-09-26T02:17:25.633Z,13.90
2022-09-26T02:19:56.917Z,14.53
2022-09-26T02:22:26.242Z,15.23
2022-09-26T02:24:53.309Z,15.23
2022-09-26T02:27:21.025Z,17.93
2022-09-26T02:29:47.895Z,14.77
2022-09-26T02:32:19.211Z,16.93
2022-09-26T02:34:48.069Z,16.00
2022-09-26T02:37:16.063Z,19.20
2022-09-26T02:39:44.742Z,20.60
2022-09-26T02:42:31.632Z,14.47
2022-09-26T02:45:07.455Z,12.93
2022-09-26T02:47:42.021Z,14.10
2022-09-26T02:50:12.044Z,17.17
2022-09-26T02:52:57.716Z,14.20
2022-09-26T02:55:35.033Z,15.77
2022-09-26T02:58:05.760Z,19.70
2022-09-26T03:00:46.091Z,19.73
2022-09-26T03:03:18.111Z,15.90
2022-09-26T03:05:45.866Z,19.53
2022-09-26T03:08:18.063Z,17.27
2022-09-26T03:10:45.879Z,15.43
2022-09-26T03:13:15.547Z,16.60
2022-09-26T03:15:45.411Z,18.10
2022-09-26T03:18:15.383Z,15.73
2022-09-26T03:20:42.254Z,20.30
2022-09-26T03:23:09.866Z,16.57
2022-09-26T03:25:37.774Z,15.43
2022-09-26T03:28:06.835Z,15.17
2022-09-26T03:30:33.859Z,14.93
2022-09-26T03:33:19.222Z,16.50
2022-09-26T03:35:47.124Z,16.63
2022-09-26T03:38:14.698Z,14.13
2022-09-26T03:40:48.539Z,18.10
2022-09-26T03:43:33.805Z,17.63
2022-09-26T03:46:07.787Z,19.30
2022-09-26T03:48:35.022Z,22.87
2022-09-26T03:51:07.407Z,21.47
2022-09-26T03:53:35.575Z,22.07
2022-09-26T03:56:08.781Z,20.60
2022-09-26T03:58:35.810Z,21.17
2022-09-26T04:01:06.443Z,21.07
2022-09-26T04:03:34.633Z,18.67
2022-09-26T04:06:01.708Z,30.67
2022-09-26T04:08:28.710Z,29.73
2022-09-26T04:11:23.192Z,33.17
2022-09-26T04:13:52.914Z,20.80
2022-09-26T04:16:24.252Z,24.67
2022-09-26T04:19:12.418Z,25.53
2022-09-26T04:21:40.361Z,20.13
2022-09-26T04:24:08.334Z,19.30
2022-09-26T04:26:36.054Z,22.73
2022-09-26T04:29:04.393Z,23.90
2022-09-26T04:31:51.586Z,23.20
2022-09-26T04:34:27.434Z,23.40
2022-09-26T04:36:55.511Z,24.50
2022-09-26T04:39:23.319Z,23.83
2022-09-26T04:41:50.543Z,24.80
2022-09-26T04:44:17.310Z,19.57
2022-09-26T04:46:44.679Z,20.10
2022-09-26T04:49:12.553Z,19.40
2022-09-26T04:51:39.715Z,20.27
2022-09-26T04:54:06.697Z,21.77
2022-09-26T04:56:38.164Z,41.90
2022-09-26T04:59:07.239Z,56.73
2022-09-26T05:01:57.743Z,44.93
2022-09-26T05:04:44.861Z,17.83
2022-09-26T05:07:12.004Z,14.03
2022-09-26T05:09:38.839Z,15.27
2022-09-26T05:12:17.676Z,13.70
2022-09-26T05:14:47.929Z,14.03
2022-09-26T05:17:15.142Z,14.73
2022-09-26T05:19:45.647Z,14.17
2022-09-26T05:22:25.524Z,18.80
2022-09-26T05:25:12.341Z,21.13
2022-09-26T05:27:40.096Z,13.90
2022-09-26T05:30:07.447Z,15.67
2022-09-26T05:32:34.485Z,14.43
2022-09-26T05:35:01.311Z,18.53
2022-09-26T05:37:31.080Z,20.50
2022-09-26T05:40:16.881Z,21.13
2022-09-26T05:42:49.502Z,37.37
2022-09-26T05:45:16.532Z,29.87
2022-09-26T05:47:44.187Z,33.13
2022-09-26T05:50:11.679Z,28.27
2022-09-26T05:52:40.010Z,26.77
2022-09-26T05:55:09.329Z,22.43
2022-09-26T05:58:08.091Z,24.53
2022-09-26T06:00:55.211Z,18.83
2022-09-26T06:03:23.154Z,24.80
2022-09-26T06:06:17.211Z,24.93
2022-09-26T06:08:44.385Z,29.37
2022-09-26T06:11:26.333Z,24.50
2022-09-26T06:13:53.648Z,24.57
2022-09-26T06:16:21.250Z,18.83
2022-09-26T06:18:49.320Z,18.83
2022-09-26T06:21:17.370Z,19.73
2022-09-26T06:23:46.313Z,21.17
2022-09-26T06:26:16.311Z,19.83
2022-09-26T06:28:43.292Z,22.10
2022-09-26T06:31:14.341Z,19.30
2022-09-26T06:34:16.612Z,16.40
2022-09-26T06:37:03.699Z,19.60
2022-09-26T06:39:35.947Z,20.97
2022-09-26T06:42:07.890Z,20.10
2022-09-26T06:44:47.344Z,22.63
2022-09-26T06:47:34.556Z,23.43
2022-09-26T06:50:22.222Z,17.93
2022-09-26T06:52:53.084Z,20.20
2022-09-26T06:55:20.167Z,21.93
2022-09-26T06:57:46.998Z,19.90
2022-09-26T07:00:16.015Z,18.83
2022-09-26T07:03:03.199Z,20.13
2022-09-26T07:05:56.207Z,18.80
2022-09-26T07:08:37.387Z,25.27
2022-09-26T07:11:32.785Z,19.87
2022-09-26T07:14:00.289Z,19.17
2022-09-26T07:16:27.312Z,19.07
2022-09-26T07:19:17.230Z,19.37
2022-09-26T07:22:06.462Z,21.67
2022-09-26T07:24:50.896Z,21.83
2022-09-26T07:27:18.601Z,19.00
2022-09-26T07:29:47.497Z,22.80
2022-09-26T07:32:15.881Z,20.27
2022-09-26T07:35:09.743Z,19.97
2022-09-26T07:37:37.015Z,18.57
2022-09-26T07:40:04.271Z,19.13
2022-09-26T07:42:32.519Z,18.93
2022-09-26T07:45:22.313Z,22.53
2022-09-26T07:48:05.425Z,18.93
2022-09-26T07:50:54.278Z,16.93
2022-09-26T07:53:34.648Z,17.53
2022-09-26T07:56:24.390Z,16.43
2022-09-26T07:59:11.260Z,18.47
2022-09-26T08:01:54.673Z,16.87
2022-09-26T08:04:33.831Z,16.00
2022-09-26T08:07:02.025Z,15.83
2022-09-26T08:09:30.114Z,14.20
2022-09-26T08:12:27.577Z,12.57
2022-09-26T08:15:07.191Z,18.33
2022-09-26T08:17:41.255Z,14.00
2022-09-26T08:20:08.518Z,13.47
2022-09-26T08:22:37.064Z,13.30
2022-09-26T08:25:06.974Z,15.70
2022-09-26T08:27:43.814Z,14.57
2022-09-26T08:30:12.102Z,13.63
2022-09-26T08:32:39.711Z,12.13
2022-09-26T08:35:07.426Z,11.53
2022-09-26T08:38:01.303Z,10.93
2022-09-26T08:40:50.073Z,12.73
2022-09-26T08:43:40.993Z,11.10
2022-09-26T08:47:03.678Z,10.47
2022-09-26T08:49:50.419Z,10.90
2022-09-26T08:52:51.438Z,12.07
2022-09-26T08:55:21.097Z,9.87
2022-09-26T08:57:54.439Z,10.53
2022-09-26T09:00:22.679Z,10.83
2022-09-26T09:02:56.221Z,12.37
2022-09-26T09:05:28.583Z,12.20
2022-09-26T09:07:57.175Z,10.47
2022-09-26T09:10:41.117Z,10.10
2022-09-26T09:13:40.235Z,12.70
2022-09-26T09:16:39.409Z,8.70
2022-09-26T09:19:31.256Z,8.97
2022-09-26T09:22:26.955Z,12.70
2022-09-26T09:25:05.901Z,9.13
2022-09-26T09:28:05.459Z,9.63
2022-09-26T09:30:38.343Z,14.37
2022-09-26T09:33:41.669Z,11.67
2022-09-26T09:36:46.624Z,10.30
2022-09-26T09:39:48.955Z,11.53
2022-09-26T09:42:31.938Z,9.17
2022-09-26T09:45:03.224Z,12.70
2022-09-26T09:47:36.202Z,9.27
2022-09-26T09:50:08.745Z,9.00
2022-09-26T09:52:36.337Z,10.43
2022-09-26T09:55:13.794Z,9.27
2022-09-26T09:57:40.890Z,9.60
2022-09-26T10:00:21.461Z,9.57
2022-09-26T10:03:01.744Z,9.33
2022-09-26T10:05:45.456Z,10.03
2022-09-26T10:08:22.781Z,8.13
2022-09-26T10:11:23.591Z,12.23
2022-09-26T10:14:00.198Z,12.93
2022-09-26T10:17:02.283Z,11.27
2022-09-26T10:19:34.083Z,13.17
2022-09-26T10:22:01.608Z,10.43
2022-09-26T10:24:29.234Z,15.73
2022-09-26T10:27:24.210Z,12.27
2022-09-26T10:30:02.308Z,14.93
2022-09-26T10:32:29.488Z,10.40
2022-09-26T10:35:27.000Z,29.47
2022-09-26T10:38:06.096Z,14.93
2022-09-26T10:40:47.067Z,11.37
2022-09-26T10:43:21.008Z,13.87
2022-09-26T10:45:49.991Z,11.60
2022-09-26T10:48:38.027Z,12.33
2022-09-26T10:51:43.027Z,12.70
2022-09-26T10:54:18.896Z,12.63
2022-09-26T10:56:59.418Z,10.07
2022-09-26T10:59:36.304Z,11.03
2022-09-26T11:02:05.910Z,13.60
2022-09-26T11:04:52.851Z,12.37
2022-09-26T11:07:48.060Z,11.70
2022-09-26T11:10:42.231Z,10.97
2022-09-26T11:13:24.156Z,13.40
2022-09-26T11:16:01.400Z,14.07
2022-09-26T11:18:47.916Z,11.47
2022-09-26T11:21:28.202Z,11.53
2022-09-26T11:24:03.326Z,8.60
2022-09-26T11:26:33.775Z,9.60
2022-09-26T11:29:04.397Z,10.23
2022-09-26T11:31:44.374Z,12.97
2022-09-26T11:34:30.605Z,13.13
2022-09-26T11:37:32.060Z,11.23
2022-09-26T11:40:09.536Z,9.80
2022-09-26T11:42:58.991Z,7.83
2022-09-26T11:45:39.949Z,8.67
2022-09-26T11:48:44.497Z,8.53
2022-09-26T11:51:36.213Z,10.57
2022-09-26T11:54:23.757Z,9.70
2022-09-26T11:56:56.338Z,9.97
2022-09-26T11:59:32.448Z,13.77
2022-09-26T12:02:03.769Z,12.97
2022-09-26T12:04:46.039Z,8.10
2022-09-26T12:07:32.863Z,11.20
2022-09-26T12:09:59.837Z,8.77
2022-09-26T12:12:41.325Z,8.13
2022-09-26T12:15:15.235Z,8.83
2022-09-26T12:17:48.448Z,21.90
2022-09-26T12:20:26.916Z,9.63
2022-09-26T12:23:02.630Z,19.80
2022-09-26T12:25:49.357Z,16.97
2022-09-26T12:28:23.153Z,13.83
2022-09-26T12:31:03.399Z,8.73
2022-09-26T12:33:48.185Z,10.30
2022-09-26T12:36:24.396Z,11.77
2022-09-26T12:39:07.615Z,10.73
2022-09-26T12:41:34.572Z,10.30
2022-09-26T12:44:01.291Z,8.83
2022-09-26T12:46:46.856Z,15.10
2022-09-26T12:49:29.706Z,8.73
2022-09-26T12:52:02.559Z,9.33
2022-09-26T12:54:36.797Z,11.33
2022-09-26T12:57:04.554Z,11.30
2022-09-26T12:59:38.960Z,7.83
2022-09-26T13:02:17.692Z,8.17
2022-09-26T13:05:03.485Z,9.97
2022-09-26T13:07:57.061Z,11.07
2022-09-26T13:10:38.450Z,9.27
2022-09-26T13:13:25.092Z,11.40
2022-09-26T13:15:53.354Z,9.20
2022-09-26T13:18:26.503Z,7.97
2022-09-26T13:21:06.194Z,7.47
2022-09-26T13:23:41.250Z,8.80
2022-09-26T13:26:16.775Z,7.93
2022-09-26T13:29:12.882Z,9.70
2022-09-26T13:31:46.540Z,8.13
2022-09-26T13:34:28.906Z,9.00
2022-09-26T13:36:59.195Z,7.77
2022-09-26T13:39:30.577Z,8.57
2022-09-26T13:42:04.088Z,10.27
2022-09-26T13:44:33.978Z,7.67
2022-09-26T13:47:22.989Z,8.97
2022-09-26T13:49:55.013Z,8.33
2022-09-26T13:52:28.638Z,7.40
2022-09-26T13:55:00.678Z,8.73
2022-09-26T13:57:39.997Z,10.03
2022-09-26T14:00:26.382Z,9.73
2022-09-26T14:03:17.838Z,8.33
2022-09-26T14:05:44.801Z,11.80
2022-09-26T14:08:39.644Z,12.37
2022-09-26T14:11:12.094Z,8.13
2022-09-26T14:13:39.022Z,9.83
2022-09-26T14:16:25.837Z,12.53
2022-09-26T14:18:58.834Z,10.13
2022-09-26T14:21:45.019Z,10.63
2022-09-26T14:24:20.951Z,10.57
2022-09-26T14:27:11.242Z,9.97
2022-09-26T14:29:47.234Z,9.27
2022-09-26T14:32:26.133Z,10.80
2022-09-26T14:34:59.640Z,11.07
2022-09-26T14:37:42.335Z,10.50
2022-09-26T14:40:28.719Z,9.73
2022-09-26T14:42:57.698Z,9.73
2022-09-26T14:45:41.717Z,8.93
2022-09-26T14:48:34.559Z,10.00
2022-09-26T14:51:19.881Z,8.77
2022-09-26T14:54:04.777Z,9.53
2022-09-26T14:56:41.203Z,10.80
2022-09-26T14:59:20.792Z,10.90
2022-09-26T15:01:48.050Z,14.13
2022-09-26T15:04:22.109Z,8.87
2022-09-26T15:06:52.063Z,8.53
2022-09-26T15:09:22.084Z,8.57
2022-09-26T15:11:52.635Z,18.37
2022-09-26T15:14:30.999Z,40.00
2022-09-26T15:16:59.565Z,27.60
2022-09-26T15:19:34.647Z,17.83
2022-09-26T15:22:09.338Z,14.70
2022-09-26T15:24:39.146Z,14.67
2022-09-26T15:27:10.851Z,11.57
2022-09-26T15:29:43.867Z,12.13
2022-09-26T15:32:19.790Z,7.77
2022-09-26T15:34:47.364Z,9.97
2022-09-26T15:37:23.187Z,13.73
2022-09-26T15:39:50.712Z,9.47
2022-09-26T15:42:35.975Z,8.43
2022-09-26T15:45:15.762Z,12.27
2022-09-26T15:47:43.427Z,9.23
2022-09-26T15:50:16.135Z,9.03
2022-09-26T15:53:01.329Z,10.60
2022-09-26T15:55:29.248Z,9.13
2022-09-26T15:57:57.335Z,9.27
2022-09-26T16:00:24.182Z,10.00
2022-09-26T16:02:51.400Z,10.70
2022-09-26T16:05:19.042Z,10.03
2022-09-26T16:07:50.935Z,10.23
2022-09-26T16:10:21.481Z,10.97
2022-09-26T16:12:48.412Z,12.73
2022-09-26T16:15:19.353Z,11.13
2022-09-26T16:17:53.904Z,10.30
2022-09-26T16:20:21.095Z,10.23
2022-09-26T16:22:51.206Z,13.70
2022-09-26T16:25:20.916Z,9.73
2022-09-26T16:27:49.606Z,9.97
2022-09-26T16:30:28.780Z,10.87
2022-09-26T16:33:15.431Z,10.80
2022-09-26T16:35:45.081Z,10.53
2022-09-26T16:38:21.078Z,14.23
2022-09-26T16:40:52.603Z,15.43
2022-09-26T16:43:27.401Z,12.67
2022-09-26T16:46:02.597Z,13.43
2022-09-26T16:48:34.199Z,12.20
2022-09-26T16:51:19.751Z,15.60
2022-09-26T16:53:47.709Z,16.83
2022-09-26T16:56:19.276Z,17.27
2022-09-26T16:58:51.627Z,13.53
2022-09-26T17:01:37.458Z,20.53
2022-09-26T17:04:05.187Z,17.10
2022-09-26T17:06:31.919Z,17.03
2022-09-26T17:09:03.606Z,18.73
2022-09-26T17:11:31.230Z,25.30
2022-09-26T17:13:58.225Z,15.40
2022-09-26T17:16:25.158Z,15.77
2022-09-26T17:18:52.024Z,17.60
2022-09-26T17:21:18.902Z,17.80
2022-09-26T17:23:45.947Z,18.83
2022-09-26T17:26:18.291Z,22.97
2022-09-26T17:28:45.756Z,23.37
2022-09-26T17:31:19.613Z,20.00
2022-09-26T17:33:47.735Z,22.67
2022-09-26T17:36:19.603Z,22.77
2022-09-26T17:38:46.472Z,23.87
2022-09-26T17:41:13.368Z,20.83
2022-09-26T17:43:40.290Z,20.87
2022-09-26T17:46:15.052Z,17.87
2022-09-26T17:48:43.064Z,14.43
2022-09-26T17:51:14.015Z,16.13
2022-09-26T17:53:49.524Z,17.20
2022-09-26T17:56:17.171Z,21.40
2022-09-26T17:58:44.634Z,11.03
2022-09-26T18:01:23.333Z,11.43
2022-09-26T18:03:52.334Z,8.97
2022-09-26T18:06:19.603Z,35.67
2022-09-26T18:08:46.569Z,30.17
2022-09-26T18:11:15.677Z,16.53
2022-09-26T18:13:47.896Z,14.37
2022-09-26T18:16:16.272Z,15.13
2022-09-26T18:18:44.247Z,16.80
2022-09-26T18:21:13.896Z,17.47
2022-09-26T18:23:49.819Z,20.70
2022-09-26T18:26:26.980Z,17.50
2022-09-26T18:28:54.954Z,18.33
2022-09-26T18:31:25.928Z,17.80
2022-09-26T18:33:53.824Z,14.80
2022-09-26T18:36:21.797Z,16.53
2022-09-26T18:38:48.756Z,19.27
2022-09-26T18:41:18.885Z,19.00
2022-09-26T18:43:46.916Z,23.63
2022-09-26T18:46:16.975Z,22.43
2022-09-26T18:48:44.506Z,25.40
2022-09-26T18:51:12.050Z,19.27
2022-09-26T18:53:40.381Z,20.10
2022-09-26T18:56:26.798Z,19.57
2022-09-26T18:58:53.685Z,20.03
2022-09-26T19:01:23.449Z,18.00
2022-09-26T19:03:50.517Z,18.10
2022-09-26T19:06:37.570Z,19.83
2022-09-26T19:09:06.001Z,22.00
2022-09-26T19:11:34.636Z,36.03
2022-09-26T19:14:06.747Z,35.73
2022-09-26T19:16:33.644Z,34.47
2022-09-26T19:19:00.457Z,64.53
2022-09-26T19:21:36.062Z,75.87
2022-09-26T19:24:20.295Z,77.53
2022-09-26T19:27:04.709Z,54.97
2022-09-26T19:29:36.095Z,53.43
2022-09-26T19:32:04.741Z,38.90
2022-09-26T19:34:32.883Z,41.80
2022-09-26T19:37:01.585Z,29.50
2022-09-26T19:39:28.688Z,16.83
2022-09-26T19:41:55.475Z,16.60
2022-09-26T19:44:23.220Z,16.03
2022-09-26T19:46:50.252Z,14.43
2022-09-26T19:49:18.279Z,14.93
2022-09-26T19:51:45.167Z,16.03
2022-09-26T19:54:16.785Z,14.67
2022-09-26T19:56:43.792Z,13.23
2022-09-26T19:59:11.949Z,12.10
2022-09-26T20:01:39.903Z,16.03
2022-09-26T20:04:12.959Z,12.10
2022-09-26T20:06:40.026Z,12.73
2022-09-26T20:09:10.763Z,15.00
2022-09-26T20:11:37.562Z,13.87
2022-09-26T20:14:23.148Z,13.57
2022-09-26T20:16:51.699Z,13.40
2022-09-26T20:19:29.257Z,13.70
2022-09-26T20:21:59.935Z,17.77
2022-09-26T20:24:27.358Z,19.63
2022-09-26T20:26:54.242Z,16.47
2022-09-26T20:29:21.121Z,16.43
2022-09-26T20:31:47.989Z,22.60
2022-09-26T20:34:17.171Z,19.93
2022-09-26T20:36:51.584Z,22.37
2022-09-26T20:39:20.887Z,20.07
2022-09-26T20:41:47.839Z,20.80
2022-09-26T20:44:18.108Z,19.00
2022-09-26T20:46:52.677Z,16.93
2022-09-26T20:49:26.141Z,20.07
2022-09-26T20:51:53.751Z,13.40
2022-09-26T20:54:28.031Z,14.73
2022-09-26T20:56:55.329Z,17.17
2022-09-26T20:59:22.737Z,18.80
2022-09-26T21:01:50.653Z,16.90
2022-09-26T21:04:18.476Z,21.60
2022-09-26T21:06:45.884Z,23.87
2022-09-26T21:09:15.909Z,29.90
2022-09-26T21:11:43.166Z,27.20
2022-09-26T21:14:09.999Z,50.10
2022-09-26T21:16:42.895Z,22.00
2022-09-26T21:19:12.344Z,20.67
2022-09-26T21:21:39.769Z,16.13
2022-09-26T21:24:15.357Z,13.23
2022-09-26T21:26:42.236Z,14.03
2022-09-26T21:29:12.750Z,13.33
2022-09-26T21:31:40.695Z,13.07
2022-09-26T21:34:10.964Z,13.10
2022-09-26T21:36:39.346Z,10.87
2022-09-26T21:39:06.144Z,11.27
2022-09-26T21:41:33.137Z,10.33
2022-09-26T21:44:03.619Z,8.27
2022-09-26T21:46:30.535Z,10.97
2022-09-26T21:48:57.382Z,12.40
2022-09-26T21:51:27.519Z,11.43
2022-09-26T21:53:57.588Z,16.47
2022-09-26T21:56:26.540Z,13.33
2022-09-26T21:58:53.822Z,12.03
2022-09-26T22:01:21.158Z,12.33
2022-09-26T22:03:48.107Z,13.00
2022-09-26T22:06:15.006Z,18.00
2022-09-26T22:08:43.509Z,12.77
2022-09-26T22:11:10.298Z,17.33
2022-09-26T22:13:37.897Z,21.30
2022-09-26T22:16:08.523Z,20.97
2022-09-26T22:18:35.907Z,20.83
2022-09-26T22:21:04.919Z,17.17
2022-09-26T22:23:32.488Z,16.07
2022-09-26T22:25:59.724Z,21.70
2022-09-26T22:28:26.969Z,23.43
2022-09-26T22:30:54.903Z,23.03
2022-09-26T22:33:22.338Z,24.20
2022-09-26T22:35:49.978Z,20.23
2022-09-26T22:38:18.353Z,20.30
2022-09-26T22:40:45.559Z,22.13
2022-09-26T22:43:12.502Z,18.63
2022-09-26T22:45:39.406Z,15.67
2022-09-26T22:48:06.266Z,13.83
2022-09-26T22:50:33.200Z,11.33
2022-09-26T22:53:00.011Z,11.20
2022-09-26T22:55:26.860Z,15.00
2022-09-26T22:57:53.669Z,12.70
2022-09-26T23:00:20.642Z,14.93
2022-09-26T23:02:47.421Z,14.03
2022-09-26T23:05:14.375Z,13.33
2022-09-26T23:07:41.148Z,16.03
2022-09-26T23:10:08.221Z,11.67
2022-09-26T23:12:35.344Z,11.20
2022-09-26T23:15:02.109Z,11.57
2022-09-26T23:17:29.196Z,17.57
2022-09-26T23:19:56.193Z,16.00
2022-09-26T23:22:23.070Z,17.53
2022-09-26T23:24:49.838Z,15.50
2022-09-26T23:27:16.752Z,20.17
2022-09-26T23:29:44.505Z,18.50
2022-09-26T23:32:11.420Z,18.27
2022-09-26T23:34:38.188Z,21.97
2022-09-26T23:37:05.068Z,19.90
2022-09-26T23:39:31.901Z,22.50
2022-09-26T23:41:58.998Z,19.37
2022-09-26T23:44:26.060Z,20.40
2022-09-26T23:46:52.980Z,23.13
2022-09-26T23:49:19.810Z,25.93
2022-09-26T23:51:47.787Z,19.73
2022-09-26T23:54:14.657Z,17.83
2022-09-26T23:56:41.925Z,15.30
2022-09-26T23:59:09.076Z,18.10
